createdAt,value
2019-01-15T00:01:19.766Z,2.60
2019-01-15T00:03:49.260Z,2.60
2019-01-15T00:06:19.093Z,2.60
2019-01-15T00:08:48.579Z,2.50
2019-01-15T00:11:18.292Z,2.50
2019-01-15T00:13:47.815Z,2.60
2019-01-15T00:16:18.524Z,2.50
2019-01-15T00:18:48.024Z,2.50
2019-01-15T00:21:19.307Z,2.60
2019-01-15T00:23:50.238Z,2.60
2019-01-15T00:26:20.341Z,2.60
2019-01-15T00:28:49.967Z,2.60
2019-01-15T00:31:19.519Z,2.60
2019-01-15T00:33:49.113Z,2.40
2019-01-15T00:36:19.644Z,2.60
2019-01-15T00:38:49.907Z,2.60
2019-01-15T00:41:19.496Z,2.70
2019-01-15T00:43:50.179Z,2.60
2019-01-15T00:46:20.289Z,2.60
2019-01-15T00:49:14.391Z,2.70
2019-01-15T00:51:43.916Z,2.70
2019-01-15T00:54:13.616Z,2.50
2019-01-15T00:56:43.408Z,2.60
2019-01-15T00:59:13.054Z,2.60
2019-01-15T01:01:42.574Z,2.60
2019-01-15T01:04:12.124Z,2.60
2019-01-15T01:06:42.778Z,2.60
2019-01-15T01:09:12.389Z,2.60
2019-01-15T01:11:42.096Z,2.60
2019-01-15T01:14:11.660Z,2.60
2019-01-15T01:16:41.351Z,2.60
2019-01-15T01:19:10.826Z,2.70
2019-01-15T01:21:40.746Z,2.60
2019-01-15T01:24:10.275Z,2.60
2019-01-15T01:26:39.807Z,2.50
2019-01-15T01:29:09.479Z,2.50
2019-01-15T01:31:39.012Z,2.60
2019-01-15T01:34:08.759Z,2.50
2019-01-15T01:36:38.274Z,2.50
2019-01-15T01:39:10.923Z,2.50
2019-01-15T01:41:42.037Z,2.50
2019-01-15T01:44:11.639Z,2.60
2019-01-15T01:46:41.640Z,2.50
2019-01-15T01:49:11.660Z,2.60
2019-01-15T01:51:41.264Z,2.50
2019-01-15T01:54:10.939Z,2.50
2019-01-15T01:56:41.358Z,2.50
2019-01-15T01:59:11.354Z,2.60
2019-01-15T02:01:41.024Z,2.60
2019-01-15T02:04:10.536Z,2.60
2019-01-15T02:06:40.138Z,2.70
2019-01-15T02:09:10.058Z,2.60
2019-01-15T02:11:39.649Z,2.60
2019-01-15T02:14:09.252Z,2.60
2019-01-15T02:16:38.921Z,2.60
2019-01-15T02:19:08.759Z,2.50
2019-01-15T02:21:38.400Z,2.50
2019-01-15T02:24:08.646Z,2.60
2019-01-15T02:26:38.253Z,2.50
2019-01-15T02:29:07.920Z,2.60
2019-01-15T02:31:37.457Z,2.60
2019-01-15T02:34:08.118Z,2.70
2019-01-15T02:36:37.708Z,2.70
2019-01-15T02:39:09.160Z,2.70
2019-01-15T02:41:38.711Z,2.70
2019-01-15T02:44:08.211Z,2.60
2019-01-15T02:46:37.906Z,2.60
2019-01-15T02:49:08.482Z,2.50
2019-01-15T02:51:38.143Z,2.60
2019-01-15T02:54:07.681Z,2.50
2019-01-15T02:56:37.347Z,2.60
2019-01-15T02:59:07.206Z,2.50
2019-01-15T03:01:37.126Z,2.50
2019-01-15T03:04:06.683Z,2.50
2019-01-15T03:06:36.395Z,2.50
2019-01-15T03:09:08.607Z,2.30
2019-01-15T03:11:38.329Z,2.30
2019-01-15T03:14:09.046Z,2.20
2019-01-15T03:16:38.931Z,2.30
2019-01-15T03:19:08.729Z,2.20
2019-01-15T03:21:38.323Z,2.20
2019-01-15T03:24:08.268Z,2.00
2019-01-15T03:26:37.904Z,2.10
2019-01-15T03:29:07.556Z,2.10
2019-01-15T03:31:37.097Z,2.10
2019-01-15T03:34:06.800Z,2.10
2019-01-15T03:36:37.795Z,2.10
2019-01-15T03:39:09.620Z,2.20
2019-01-15T03:41:39.884Z,2.20
2019-01-15T03:44:10.207Z,2.30
2019-01-15T03:46:40.188Z,2.40
2019-01-15T03:49:09.802Z,2.30
2019-01-15T03:51:39.439Z,2.30
2019-01-15T03:54:09.459Z,2.30
2019-01-15T03:56:39.798Z,2.40
2019-01-15T03:59:09.514Z,2.40
2019-01-15T04:01:39.707Z,2.40
2019-01-15T04:04:09.464Z,2.40
2019-01-15T04:06:39.063Z,2.40
2019-01-15T04:09:09.378Z,2.40
2019-01-15T04:11:38.908Z,2.40
2019-01-15T04:14:08.728Z,2.30
2019-01-15T04:16:39.356Z,2.20
2019-01-15T04:19:10.117Z,2.10
2019-01-15T04:21:39.752Z,2.10
2019-01-15T04:24:09.362Z,2.10
2019-01-15T04:26:41.023Z,2.00
2019-01-15T04:29:10.629Z,1.90
2019-01-15T04:31:40.321Z,1.70
2019-01-15T04:34:09.988Z,1.60
2019-01-15T04:36:39.897Z,1.60
2019-01-15T04:39:09.694Z,1.60
2019-01-15T04:41:39.311Z,1.60
2019-01-15T04:44:08.990Z,1.70
2019-01-15T04:46:39.754Z,1.60
2019-01-15T04:49:09.442Z,1.70
2019-01-15T04:51:39.110Z,1.80
2019-01-15T04:54:09.750Z,1.80
2019-01-15T04:56:39.699Z,1.90
2019-01-15T04:59:09.362Z,1.90
2019-01-15T05:01:38.983Z,2.00
2019-01-15T05:04:08.807Z,2.10
2019-01-15T05:06:38.423Z,2.20
2019-01-15T05:09:09.078Z,2.20
2019-01-15T05:11:38.758Z,2.30
2019-01-15T05:14:08.509Z,2.30
2019-01-15T05:16:38.175Z,2.30
2019-01-15T05:19:07.796Z,2.20
2019-01-15T05:21:37.671Z,2.30
2019-01-15T05:24:07.437Z,2.40
2019-01-15T05:26:37.108Z,2.40
2019-01-15T05:29:06.798Z,2.40
2019-01-15T05:31:36.544Z,2.30
2019-01-15T05:34:06.108Z,2.30
2019-01-15T05:36:35.891Z,2.30
2019-01-15T05:39:13.949Z,2.40
2019-01-15T05:41:44.703Z,2.40
2019-01-15T05:44:14.308Z,2.40
2019-01-15T05:46:44.138Z,2.40
2019-01-15T05:49:13.915Z,2.40
2019-01-15T05:51:44.689Z,2.40
2019-01-15T05:54:14.351Z,2.40
2019-01-15T05:56:43.974Z,2.40
2019-01-15T05:59:14.047Z,2.50
2019-01-15T06:01:43.803Z,2.50
2019-01-15T06:04:13.524Z,2.60
2019-01-15T06:06:43.144Z,2.50
2019-01-15T06:09:13.014Z,2.60
2019-01-15T06:11:42.991Z,2.60
2019-01-15T06:14:12.665Z,2.60
2019-01-15T06:16:42.393Z,2.60
2019-01-15T06:19:11.954Z,2.60
2019-01-15T06:21:42.878Z,2.60
2019-01-15T06:24:12.474Z,2.60
2019-01-15T06:26:42.348Z,2.60
2019-01-15T06:29:11.956Z,2.70
2019-01-15T06:31:41.716Z,2.60
2019-01-15T06:34:12.891Z,2.70
2019-01-15T06:36:42.641Z,2.70
2019-01-15T06:39:12.199Z,2.70
2019-01-15T06:41:41.942Z,2.70
2019-01-15T06:44:11.706Z,2.70
2019-01-15T06:46:41.419Z,2.80
2019-01-15T06:49:11.773Z,2.80
2019-01-15T06:51:41.393Z,2.80
2019-01-15T06:54:11.069Z,2.80
2019-01-15T06:56:40.860Z,2.90
2019-01-15T06:59:10.720Z,2.80
2019-01-15T07:01:40.660Z,2.90
2019-01-15T07:04:11.463Z,2.80
2019-01-15T07:06:41.070Z,2.80
2019-01-15T07:09:11.340Z,2.80
2019-01-15T07:11:41.017Z,2.80
2019-01-15T07:14:10.814Z,2.90
2019-01-15T07:16:40.754Z,2.90
2019-01-15T07:19:10.376Z,2.90
2019-01-15T07:21:40.193Z,2.90
2019-01-15T07:24:09.983Z,2.90
2019-01-15T07:26:39.808Z,2.90
2019-01-15T07:29:09.508Z,2.90
2019-01-15T07:31:40.270Z,2.90
2019-01-15T07:34:09.911Z,3.00
2019-01-15T07:36:39.779Z,2.90
2019-01-15T07:39:10.043Z,2.90
2019-01-15T07:41:40.707Z,2.90
2019-01-15T07:44:10.260Z,3.00
2019-01-15T07:46:40.434Z,3.00
2019-01-15T07:49:10.285Z,3.10
2019-01-15T07:51:39.899Z,3.10
2019-01-15T07:54:09.753Z,3.20
2019-01-15T07:56:45.180Z,3.10
2019-01-15T07:59:15.045Z,3.00
2019-01-15T08:01:45.923Z,3.10
2019-01-15T08:04:15.756Z,3.10
2019-01-15T08:06:45.509Z,3.20
2019-01-15T08:09:15.291Z,3.20
2019-01-15T08:11:44.940Z,3.30
2019-01-15T08:14:14.759Z,3.30
2019-01-15T08:16:44.356Z,3.40
2019-01-15T08:19:14.169Z,3.40
2019-01-15T08:21:43.757Z,3.50
2019-01-15T08:24:13.624Z,3.40
2019-01-15T08:26:43.476Z,3.40
2019-01-15T08:29:13.195Z,3.50
2019-01-15T08:31:43.082Z,3.50
2019-01-15T08:34:12.775Z,3.70
2019-01-15T08:36:42.570Z,3.60
2019-01-15T08:39:12.309Z,3.60
2019-01-15T08:41:42.133Z,3.60
2019-01-15T08:44:19.026Z,3.50
2019-01-15T08:46:45.389Z,3.60
2019-01-15T08:49:15.549Z,3.50
2019-01-15T08:51:46.817Z,3.60
2019-01-15T08:54:16.673Z,3.70
2019-01-15T08:56:48.460Z,3.70
2019-01-15T08:59:18.102Z,3.70
2019-01-15T09:01:47.803Z,3.70
2019-01-15T09:04:17.475Z,3.70
2019-01-15T09:06:47.225Z,3.70
2019-01-15T09:09:16.964Z,3.80
2019-01-15T09:11:46.524Z,3.80
2019-01-15T09:14:26.688Z,3.90
2019-01-15T09:16:52.068Z,4.00
2019-01-15T09:19:22.407Z,4.10
2019-01-15T09:21:54.020Z,4.10
2019-01-15T09:24:23.729Z,4.20
2019-01-15T09:26:53.491Z,4.20
2019-01-15T09:29:23.288Z,4.30
2019-01-15T09:31:53.099Z,4.30
2019-01-15T09:34:22.723Z,4.40
2019-01-15T09:36:52.457Z,4.50
2019-01-15T09:39:25.268Z,4.50
2019-01-15T09:41:54.945Z,4.50
2019-01-15T09:44:24.588Z,4.40
2019-01-15T09:46:54.524Z,4.40
2019-01-15T09:49:24.328Z,4.30
2019-01-15T09:51:54.000Z,4.30
2019-01-15T09:54:23.666Z,4.30
2019-01-15T09:56:54.532Z,4.40
2019-01-15T09:59:24.208Z,4.40
2019-01-15T10:01:53.848Z,4.40
2019-01-15T10:04:23.626Z,4.40
2019-01-15T10:06:53.419Z,4.50
2019-01-15T10:09:24.104Z,4.60
2019-01-15T10:11:53.728Z,4.70
2019-01-15T10:14:23.481Z,4.70
2019-01-15T10:16:54.048Z,4.70
2019-01-15T10:19:23.913Z,4.80
2019-01-15T10:21:53.691Z,4.70
2019-01-15T10:24:27.845Z,4.90
2019-01-15T10:26:58.271Z,5.00
2019-01-15T10:29:29.103Z,5.00
2019-01-15T10:32:51.582Z,5.10
2019-01-15T10:35:52.397Z,5.10
2019-01-15T10:38:22.940Z,5.20
2019-01-15T10:40:53.615Z,5.20
2019-01-15T10:43:26.491Z,5.20
2019-01-15T10:45:56.307Z,5.30
2019-01-15T10:48:26.165Z,5.30
2019-01-15T10:51:01.108Z,5.40
2019-01-15T10:53:30.860Z,5.50
2019-01-15T10:56:02.754Z,5.50
2019-01-15T10:58:32.602Z,5.60
2019-01-15T11:01:02.239Z,5.70
2019-01-15T11:03:32.111Z,5.80
2019-01-15T11:06:06.334Z,5.90
2019-01-15T11:08:37.126Z,6.00
2019-01-15T11:11:06.797Z,6.00
2019-01-15T11:13:36.459Z,6.10
2019-01-15T11:16:06.017Z,6.20
2019-01-15T11:18:35.619Z,6.20
2019-01-15T11:21:06.879Z,6.20
2019-01-15T11:23:36.600Z,6.30
2019-01-15T11:26:06.179Z,6.40
2019-01-15T11:28:36.814Z,6.50
2019-01-15T11:31:06.368Z,6.60
2019-01-15T11:33:36.322Z,6.60
2019-01-15T11:36:06.994Z,6.50
2019-01-15T11:38:36.876Z,6.60
2019-01-15T11:41:06.598Z,6.50
2019-01-15T11:43:37.184Z,6.60
2019-01-15T11:46:07.243Z,6.70
2019-01-15T11:48:37.057Z,6.70
2019-01-15T11:51:06.699Z,6.70
2019-01-15T11:53:36.265Z,6.70
2019-01-15T11:56:06.153Z,6.70
2019-01-15T11:58:35.816Z,6.70
2019-01-15T12:01:20.031Z,6.70
2019-01-15T12:04:11.360Z,6.70
2019-01-15T12:06:59.935Z,6.80
2019-01-15T12:09:48.461Z,6.80
2019-01-15T12:12:52.055Z,6.90
2019-01-15T12:15:38.947Z,6.90
2019-01-15T12:18:29.249Z,7.00
2019-01-15T12:21:17.770Z,6.90
2019-01-15T12:24:21.642Z,7.30
2019-01-15T12:27:08.112Z,7.20
2019-01-15T12:29:49.766Z,7.00
2019-01-15T12:32:44.475Z,7.00
2019-01-15T12:35:31.712Z,6.80
2019-01-15T12:38:21.280Z,6.70
2019-01-15T12:41:08.600Z,6.70
2019-01-15T12:43:57.865Z,6.70
2019-01-15T12:46:43.453Z,6.60
2019-01-15T12:49:35.049Z,6.60
2019-01-15T12:52:22.604Z,6.60
2019-01-15T12:55:03.752Z,6.50
2019-01-15T12:57:52.313Z,6.50
2019-01-15T13:00:43.586Z,6.50
2019-01-15T13:03:24.367Z,6.50
2019-01-15T13:06:18.885Z,6.50
2019-01-15T13:09:22.376Z,6.50
2019-01-15T13:12:13.662Z,6.50
2019-01-15T13:15:24.262Z,6.50
2019-01-15T13:18:15.428Z,6.50
2019-01-15T13:21:12.765Z,6.40
2019-01-15T13:23:59.916Z,6.30
2019-01-15T13:27:03.860Z,6.20
2019-01-15T13:29:55.181Z,6.10
2019-01-15T13:33:05.809Z,5.90
2019-01-15T13:36:02.739Z,5.90
2019-01-15T13:38:47.357Z,5.80
2019-01-15T13:41:34.519Z,5.80
2019-01-15T13:44:23.201Z,5.80
2019-01-15T13:47:20.685Z,5.90
2019-01-15T13:50:04.926Z,5.80
2019-01-15T13:52:56.655Z,5.70
2019-01-15T13:56:00.119Z,5.70
2019-01-15T13:59:03.780Z,5.80
2019-01-15T14:01:55.085Z,5.90
2019-01-15T14:04:43.222Z,5.80
2019-01-15T14:07:34.432Z,5.80
2019-01-15T14:10:15.867Z,5.80
2019-01-15T14:13:06.964Z,5.80
2019-01-15T14:15:54.050Z,5.80
2019-01-15T14:18:43.189Z,5.70
2019-01-15T14:21:30.521Z,5.70
2019-01-15T14:24:21.163Z,5.70
2019-01-15T14:27:09.766Z,5.60
2019-01-15T14:30:17.523Z,5.60
2019-01-15T14:33:06.120Z,5.60
2019-01-15T14:35:53.032Z,5.60
2019-01-15T14:38:47.416Z,5.40
2019-01-15T14:41:40.665Z,5.50
2019-01-15T14:44:29.367Z,5.50
2019-01-15T14:47:16.337Z,5.50
2019-01-15T14:50:03.528Z,5.50
2019-01-15T14:52:52.167Z,5.40
2019-01-15T14:55:46.070Z,5.40
2019-01-15T14:58:46.900Z,5.30
2019-01-15T15:01:35.388Z,5.40
2019-01-15T15:04:24.014Z,5.30
2019-01-15T15:07:11.039Z,5.20
2019-01-15T15:10:08.841Z,5.30
2019-01-15T15:13:03.459Z,5.30
2019-01-15T15:16:04.122Z,5.30
2019-01-15T15:18:49.140Z,5.20
2019-01-15T15:21:36.164Z,5.30
2019-01-15T15:24:23.444Z,5.30
2019-01-15T15:27:18.533Z,5.20
2019-01-15T15:29:56.753Z,5.20
2019-01-15T15:32:38.290Z,5.10
2019-01-15T15:35:31.631Z,5.20
2019-01-15T15:38:26.210Z,5.30
2019-01-15T15:41:26.894Z,5.30
2019-01-15T15:44:07.874Z,5.20
2019-01-15T15:47:07.954Z,5.20
2019-01-15T15:49:58.595Z,5.20
2019-01-15T15:52:53.198Z,5.20
2019-01-15T15:55:39.319Z,5.30
2019-01-15T15:58:48.144Z,5.20
2019-01-15T16:01:48.861Z,5.30
2019-01-15T16:04:36.195Z,5.40
2019-01-15T16:07:25.002Z,5.40
2019-01-15T16:10:06.757Z,5.30
2019-01-15T16:12:58.428Z,5.30
2019-01-15T16:15:40.325Z,5.20
2019-01-15T16:18:29.491Z,5.10
2019-01-15T16:21:24.227Z,5.20
2019-01-15T16:24:13.045Z,5.20
2019-01-15T16:27:19.666Z,5.20
2019-01-15T16:30:17.294Z,5.20
2019-01-15T16:33:07.878Z,5.20
2019-01-15T16:35:45.562Z,5.30
2019-01-15T16:38:28.018Z,5.30
2019-01-15T16:41:16.936Z,5.20
2019-01-15T16:44:20.501Z,5.00
2019-01-15T16:47:03.567Z,5.10
2019-01-15T16:49:49.195Z,5.10
2019-01-15T16:52:52.983Z,5.10
2019-01-15T16:55:53.349Z,5.10
2019-01-15T16:58:36.277Z,5.20
2019-01-15T17:01:43.277Z,5.20
2019-01-15T17:04:32.144Z,5.20
2019-01-15T17:07:18.962Z,5.20
2019-01-15T17:10:16.629Z,5.20
2019-01-15T17:13:01.919Z,5.10
2019-01-15T17:15:50.393Z,5.20
2019-01-15T17:18:37.645Z,5.20
2019-01-15T17:21:29.152Z,5.20
2019-01-15T17:24:16.509Z,5.20
2019-01-15T17:27:03.935Z,5.20
2019-01-15T17:29:40.276Z,5.20
2019-01-15T17:32:24.675Z,5.20
2019-01-15T17:35:12.564Z,5.30
2019-01-15T17:37:56.955Z,5.30
2019-01-15T17:40:44.509Z,5.30
2019-01-15T17:43:35.948Z,5.20
2019-01-15T17:46:31.178Z,5.20
2019-01-15T17:49:21.025Z,5.10
2019-01-15T17:52:10.713Z,5.10
2019-01-15T17:54:59.292Z,5.10
2019-01-15T17:57:51.138Z,5.20
2019-01-15T18:00:38.491Z,5.10
2019-01-15T18:03:31.558Z,5.10
2019-01-15T18:06:20.152Z,5.10
2019-01-15T18:09:26.963Z,5.10
2019-01-15T18:12:15.607Z,5.20
2019-01-15T18:15:04.500Z,5.10
2019-01-15T18:17:53.050Z,5.10
2019-01-15T18:20:40.511Z,5.00
2019-01-15T18:23:47.399Z,5.10
2019-01-15T18:26:39.109Z,5.10
2019-01-15T18:29:26.283Z,5.10
2019-01-15T18:32:16.268Z,5.10
2019-01-15T18:35:04.899Z,5.10
2019-01-15T18:37:52.079Z,5.20
2019-01-15T18:40:39.138Z,5.30
2019-01-15T18:43:29.577Z,5.30
2019-01-15T18:46:33.403Z,5.20
2019-01-15T18:49:24.910Z,5.10
2019-01-15T18:52:22.711Z,5.20
2019-01-15T18:55:01.454Z,5.10
2019-01-15T18:57:59.035Z,5.20
2019-01-15T19:00:55.046Z,5.10
2019-01-15T19:04:01.700Z,4.90
2019-01-15T19:06:46.263Z,5.00
2019-01-15T19:09:47.263Z,5.10
2019-01-15T19:12:38.586Z,5.00
2019-01-15T19:15:33.173Z,4.90
2019-01-15T19:18:19.984Z,5.00
2019-01-15T19:21:28.447Z,5.00
2019-01-15T19:24:22.547Z,5.10
2019-01-15T19:27:16.787Z,5.00
2019-01-15T19:30:05.221Z,5.10
2019-01-15T19:32:52.781Z,5.10
2019-01-15T19:35:41.233Z,5.10
2019-01-15T19:38:46.996Z,5.10
2019-01-15T19:41:47.766Z,5.10
2019-01-15T19:44:35.004Z,4.90
2019-01-15T19:47:17.792Z,4.90
2019-01-15T19:50:04.980Z,5.00
2019-01-15T19:53:00.810Z,4.90
2019-01-15T19:55:48.245Z,4.90
2019-01-15T19:58:39.598Z,4.80
2019-01-15T20:01:29.675Z,4.90
2019-01-15T20:04:16.633Z,4.90
2019-01-15T20:06:59.027Z,4.80
2019-01-15T20:09:46.564Z,4.70
2019-01-15T20:12:38.101Z,4.70
2019-01-15T20:15:27.611Z,4.70
2019-01-15T20:18:14.715Z,4.70
2019-01-15T20:21:03.515Z,4.70
2019-01-15T20:23:49.818Z,4.60
2019-01-15T20:26:53.598Z,4.60
2019-01-15T20:29:42.768Z,4.50
2019-01-15T20:32:31.442Z,4.50
2019-01-15T20:35:22.899Z,4.40
2019-01-15T20:38:10.158Z,4.40
2019-01-15T20:41:13.835Z,4.30
2019-01-15T20:44:05.450Z,4.30
2019-01-15T20:47:06.876Z,4.30
2019-01-15T20:50:09.037Z,4.30
2019-01-15T20:53:06.855Z,4.30
2019-01-15T20:56:04.443Z,4.30
2019-01-15T20:58:40.512Z,4.30
2019-01-15T21:01:32.973Z,4.30
2019-01-15T21:04:19.882Z,4.30
2019-01-15T21:07:06.709Z,4.30
2019-01-15T21:10:04.639Z,4.20
2019-01-15T21:12:53.349Z,4.30
2019-01-15T21:15:40.386Z,4.40
2019-01-15T21:18:29.166Z,4.40
2019-01-15T21:21:26.814Z,4.30
2019-01-15T21:24:15.430Z,4.30
2019-01-15T21:27:02.580Z,4.20
2019-01-15T21:30:06.404Z,4.40
2019-01-15T21:32:54.896Z,4.20
2019-01-15T21:35:42.064Z,4.20
2019-01-15T21:38:29.266Z,4.10
2019-01-15T21:41:26.606Z,4.10
2019-01-15T21:44:13.523Z,4.00
2019-01-15T21:47:00.828Z,4.00
2019-01-15T21:49:58.135Z,3.90
2019-01-15T21:52:47.679Z,3.80
2019-01-15T21:55:31.315Z,3.90
2019-01-15T21:58:13.936Z,4.00
2019-01-15T22:01:01.159Z,3.90
2019-01-15T22:04:02.669Z,3.90
2019-01-15T22:06:59.965Z,3.90
2019-01-15T22:09:43.467Z,3.80
2019-01-15T22:12:30.429Z,3.80
2019-01-15T22:15:34.404Z,3.60
2019-01-15T22:18:26.245Z,3.70
2019-01-15T22:21:30.044Z,3.70
2019-01-15T22:24:17.258Z,3.70
2019-01-15T22:27:14.716Z,3.50
2019-01-15T22:30:01.932Z,3.50
2019-01-15T22:32:51.777Z,3.30
2019-01-15T22:35:46.452Z,3.50
2019-01-15T22:38:47.323Z,3.40
2019-01-15T22:41:41.111Z,3.40
2019-01-15T22:44:29.721Z,3.40
2019-01-15T22:47:23.662Z,3.30
2019-01-15T22:50:16.145Z,3.20
2019-01-15T22:53:07.692Z,3.20
2019-01-15T22:55:59.257Z,3.10
2019-01-15T22:58:46.900Z,3.10
2019-01-15T23:01:30.767Z,3.10
2019-01-15T23:04:16.767Z,3.10
2019-01-15T23:07:03.832Z,3.10
2019-01-15T23:09:58.175Z,3.00
2019-01-15T23:13:05.266Z,3.00
2019-01-15T23:16:01.786Z,2.90
2019-01-15T23:18:39.693Z,2.90
2019-01-15T23:21:30.077Z,2.90
2019-01-15T23:24:24.526Z,2.90
2019-01-15T23:27:00.878Z,2.90
2019-01-15T23:29:49.758Z,2.80
2019-01-15T23:32:53.436Z,2.80
2019-01-15T23:35:42.218Z,2.80
2019-01-15T23:38:30.757Z,2.70
2019-01-15T23:41:31.137Z,2.60
2019-01-15T23:44:22.662Z,2.70
2019-01-15T23:47:09.753Z,2.60
2019-01-15T23:50:04.294Z,2.60
2019-01-15T23:52:58.907Z,2.60
2019-01-15T23:55:46.152Z,2.60
2019-01-15T23:58:29.219Z,2.50
